Portland, Oregon
Current Conditions -  °F | °C
As of 1:53 AM on Sunday 25 Jan 2015 (Local Time) from KPDX Reporting Station
Moderate Fog Moderate Fog  
Wind Chill: 47°   Ceiling: 200
Heat Index: 47°   Visibility: 0.25mi
Dew Point: 47°   Wind: 3mph
Humidity: 100%   Direction: 310°NW
Pressure: 30.24"   Gusts: NA
Location:  45.51°N, 122.67°W
Report Text: KPDX 250953Z 31003KT 1/4SM R10R/1200V1400FT FG VV002 08/08 A3024 RMK AO2 TWR VIS 1/2 SLP241 T00830083
Loading
Personal Weather Stations






























Interactive Weather Map New forecast layout! Learn more

10-Day Weather Forecast

Advertisements
Track Severe Weather on mobile